sensor_id;sensor_type;location;lat;lon;timestamp;pressure;altitude;pressure_sealevel;temperature;humidity
34177;BME280;20450;49.074;9.158;2022-11-15T00:00:17;99552.03;;;12.08;69.14
34177;BME280;20450;49.074;9.158;2022-11-15T00:03:03;99544.75;;;12.08;67.86
34177;BME280;20450;49.074;9.158;2022-11-15T00:05:49;99542.59;;;12.10;68.88
34177;BME280;20450;49.074;9.158;2022-11-15T00:08:35;99550.50;;;12.12;68.25
34177;BME280;20450;49.074;9.158;2022-11-15T00:11:21;99549.31;;;12.08;68.80
34177;BME280;20450;49.074;9.158;2022-11-15T00:14:07;99546.59;;;12.08;68.79
34177;BME280;20450;49.074;9.158;2022-11-15T00:16:55;99548.63;;;12.12;68.24
34177;BME280;20450;49.074;9.158;2022-11-15T00:19:40;99552.03;;;12.08;68.92
34177;BME280;20450;49.074;9.158;2022-11-15T00:22:31;99555.56;;;12.08;68.51
34177;BME280;20450;49.074;9.158;2022-11-15T00:25:18;99547.22;;;12.10;67.67
34177;BME280;20450;49.074;9.158;2022-11-15T00:28:04;99557.44;;;12.08;67.99
34177;BME280;20450;49.074;9.158;2022-11-15T00:30:50;99549.78;;;12.05;68.46
34177;BME280;20450;49.074;9.158;2022-11-15T00:33:37;99555.03;;;12.00;68.36
34177;BME280;20450;49.074;9.158;2022-11-15T00:36:23;99549.84;;;11.98;68.69
34177;BME280;20450;49.074;9.158;2022-11-15T00:39:09;99545.09;;;11.93;69.17
34177;BME280;20450;49.074;9.158;2022-11-15T00:41:55;99538.25;;;11.91;69.82
34177;BME280;20450;49.074;9.158;2022-11-15T00:44:40;99538.31;;;11.84;69.57
34177;BME280;20450;49.074;9.158;2022-11-15T00:47:25;99538.25;;;11.73;69.91
34177;BME280;20450;49.074;9.158;2022-11-15T00:50:13;99542.69;;;11.67;70.41
34177;BME280;20450;49.074;9.158;2022-11-15T00:53:00;99528.38;;;11.60;70.51
34177;BME280;20450;49.074;9.158;2022-11-15T00:55:46;99531.91;;;11.61;70.85
34177;BME280;20450;49.074;9.158;2022-11-15T00:58:31;99533.25;;;11.52;71.23
34177;BME280;20450;49.074;9.158;2022-11-15T01:01:17;99516.72;;;11.42;70.86
34177;BME280;20450;49.074;9.158;2022-11-15T01:04:03;99518.78;;;11.40;71.49
34177;BME280;20450;49.074;9.158;2022-11-15T01:06:50;99515.34;;;11.33;70.81
34177;BME280;20450;49.074;9.158;2022-11-15T01:09:36;99514.91;;;11.36;71.19
34177;BME280;20450;49.074;9.158;2022-11-15T01:12:22;99512.34;;;11.41;71.25
34177;BME280;20450;49.074;9.158;2022-11-15T01:15:08;99503.41;;;11.40;71.13
34177;BME280;20450;49.074;9.158;2022-11-15T01:17:54;99501.75;;;11.39;71.49
34177;BME280;20450;49.074;9.158;2022-11-15T01:20:40;99503.00;;;11.37;72.21
34177;BME280;20450;49.074;9.158;2022-11-15T01:23:28;99502.22;;;11.36;71.92
34177;BME280;20450;49.074;9.158;2022-11-15T01:26:15;99493.94;;;11.31;72.32
34177;BME280;20450;49.074;9.158;2022-11-15T01:29:01;99493.53;;;11.28;72.35
34177;BME280;20450;49.074;9.158;2022-11-15T01:31:47;99494.06;;;11.18;72.03
34177;BME280;20450;49.074;9.158;2022-11-15T01:34:33;99506.41;;;11.08;71.60
34177;BME280;20450;49.074;9.158;2022-11-15T01:37:18;99499.38;;;11.07;72.41
34177;BME280;20450;49.074;9.158;2022-11-15T01:40:06;99497.56;;;11.01;72.13
34177;BME280;20450;49.074;9.158;2022-11-15T01:42:52;99502.59;;;10.91;71.99
34177;BME280;20450;49.074;9.158;2022-11-15T01:45:38;99499.19;;;10.77;72.82
34177;BME280;20450;49.074;9.158;2022-11-15T01:48:28;99491.78;;;10.66;73.51
34177;BME280;20450;49.074;9.158;2022-11-15T01:51:19;99494.97;;;10.57;74.52
34177;BME280;20450;49.074;9.158;2022-11-15T01:54:12;99485.66;;;10.53;74.11
34177;BME280;20450;49.074;9.158;2022-11-15T01:57:06;99487.16;;;10.49;74.08
34177;BME280;20450;49.074;9.158;2022-11-15T01:59:57;99487.91;;;10.56;74.15
34177;BME280;20450;49.074;9.158;2022-11-15T02:02:43;99483.06;;;10.64;73.07
34177;BME280;20450;49.074;9.158;2022-11-15T02:05:30;99484.13;;;10.63;74.01
34177;BME280;20450;49.074;9.158;2022-11-15T02:08:17;99478.97;;;10.55;73.58
34177;BME280;20450;49.074;9.158;2022-11-15T02:11:04;99470.44;;;10.58;73.48
34177;BME280;20450;49.074;9.158;2022-11-15T02:13:54;99471.94;;;10.54;74.14
34177;BME280;20450;49.074;9.158;2022-11-15T02:16:49;99466.19;;;10.44;74.30
34177;BME280;20450;49.074;9.158;2022-11-15T02:24:02;99459.78;;;10.39;74.29
34177;BME280;20450;49.074;9.158;2022-11-15T02:27:22;99453.19;;;10.28;74.81
34177;BME280;20450;49.074;9.158;2022-11-15T02:30:40;99451.84;;;10.19;75.43
34177;BME280;20450;49.074;9.158;2022-11-15T02:33:36;99450.22;;;10.12;76.15
34177;BME280;20450;49.074;9.158;2022-11-15T02:36:37;99460.38;;;10.10;75.84
34177;BME280;20450;49.074;9.158;2022-11-15T02:39:35;99451.69;;;10.01;76.44
34177;BME280;20450;49.074;9.158;2022-11-15T02:42:30;99442.13;;;10.05;76.16
34177;BME280;20450;49.074;9.158;2022-11-15T02:45:25;99442.34;;;10.10;76.41
34177;BME280;20450;49.074;9.158;2022-11-15T02:48:17;99443.13;;;10.11;76.03
34177;BME280;20450;49.074;9.158;2022-11-15T02:51:04;99439.22;;;10.13;76.34
34177;BME280;20450;49.074;9.158;2022-11-15T02:53:51;99432.97;;;10.13;76.50
34177;BME280;20450;49.074;9.158;2022-11-15T02:56:36;99428.22;;;10.08;76.27
34177;BME280;20450;49.074;9.158;2022-11-15T02:59:47;99431.91;;;10.14;75.98
34177;BME280;20450;49.074;9.158;2022-11-15T03:06:28;99430.81;;;10.21;75.57
34177;BME280;20450;49.074;9.158;2022-11-15T03:09:29;99425.09;;;10.11;76.30
34177;BME280;20450;49.074;9.158;2022-11-15T03:12:28;99429.63;;;10.17;76.20
34177;BME280;20450;49.074;9.158;2022-11-15T03:15:21;99422.50;;;10.23;75.92
34177;BME280;20450;49.074;9.158;2022-11-15T03:18:19;99415.47;;;10.22;75.53
34177;BME280;20450;49.074;9.158;2022-11-15T03:21:09;99418.41;;;10.14;76.82
34177;BME280;20450;49.074;9.158;2022-11-15T03:24:03;99406.38;;;10.16;75.89
34177;BME280;20450;49.074;9.158;2022-11-15T03:26:53;99406.72;;;10.26;75.58
34177;BME280;20450;49.074;9.158;2022-11-15T03:29:44;99395.03;;;10.32;74.90
34177;BME280;20450;49.074;9.158;2022-11-15T03:32:36;99395.84;;;10.33;74.97
34177;BME280;20450;49.074;9.158;2022-11-15T03:35:27;99400.03;;;10.29;75.42
34177;BME280;20450;49.074;9.158;2022-11-15T03:38:19;99409.22;;;10.21;76.09
34177;BME280;20450;49.074;9.158;2022-11-15T03:41:16;99401.63;;;10.12;76.16
34177;BME280;20450;49.074;9.158;2022-11-15T03:44:13;99398.31;;;10.10;76.66
34177;BME280;20450;49.074;9.158;2022-11-15T03:47:06;99393.53;;;10.05;76.71
34177;BME280;20450;49.074;9.158;2022-11-15T03:49:58;99401.44;;;10.00;77.08
34177;BME280;20450;49.074;9.158;2022-11-15T03:52:49;99399.63;;;9.94;77.71
34177;BME280;20450;49.074;9.158;2022-11-15T03:55:36;99398.63;;;9.88;77.96
34177;BME280;20450;49.074;9.158;2022-11-15T03:58:23;99391.31;;;9.95;77.83
34177;BME280;20450;49.074;9.158;2022-11-15T04:01:09;99393.34;;;10.07;77.97
34177;BME280;20450;49.074;9.158;2022-11-15T04:03:54;99396.44;;;10.03;79.17
34177;BME280;20450;49.074;9.158;2022-11-15T04:06:40;99389.84;;;9.99;79.06
34177;BME280;20450;49.074;9.158;2022-11-15T04:09:26;99389.84;;;9.99;78.75
34177;BME280;20450;49.074;9.158;2022-11-15T04:12:11;99396.06;;;10.00;78.48
34177;BME280;20450;49.074;9.158;2022-11-15T04:15:00;99389.00;;;9.99;78.51
34177;BME280;20450;49.074;9.158;2022-11-15T04:17:48;99393.75;;;10.03;78.23
34177;BME280;20450;49.074;9.158;2022-11-15T04:20:35;99391.28;;;10.09;78.67
34177;BME280;20450;49.074;9.158;2022-11-15T04:23:21;99379.81;;;10.13;78.21
34177;BME280;20450;49.074;9.158;2022-11-15T04:26:11;99379.19;;;10.18;78.24
34177;BME280;20450;49.074;9.158;2022-11-15T04:28:59;99391.59;;;10.25;79.71
34177;BME280;20450;49.074;9.158;2022-11-15T04:31:47;99380.63;;;10.14;78.82
34177;BME280;20450;49.074;9.158;2022-11-15T04:34:32;99383.94;;;10.16;78.74
34177;BME280;20450;49.074;9.158;2022-11-15T04:37:18;99394.78;;;10.09;78.43
34177;BME280;20450;49.074;9.158;2022-11-15T04:40:05;99389.34;;;10.16;77.67
34177;BME280;20450;49.074;9.158;2022-11-15T04:42:52;99383.91;;;10.22;78.67
34177;BME280;20450;49.074;9.158;2022-11-15T04:45:37;99379.28;;;10.29;78.64
34177;BME280;20450;49.074;9.158;2022-11-15T04:48:25;99368.16;;;10.19;76.58
34177;BME280;20450;49.074;9.158;2022-11-15T04:51:11;99360.31;;;10.11;76.83
34177;BME280;20450;49.074;9.158;2022-11-15T04:53:56;99359.22;;;10.19;76.88
34177;BME280;20450;49.074;9.158;2022-11-15T04:56:42;99354.59;;;10.26;78.15
34177;BME280;20450;49.074;9.158;2022-11-15T04:59:28;99364.72;;;10.30;77.05
34177;BME280;20450;49.074;9.158;2022-11-15T05:02:13;99350.63;;;10.28;76.91
34177;BME280;20450;49.074;9.158;2022-11-15T05:05:00;99350.78;;;10.33;77.84
34177;BME280;20450;49.074;9.158;2022-11-15T05:07:46;99351.69;;;10.27;76.82
34177;BME280;20450;49.074;9.158;2022-11-15T05:10:31;99351.63;;;10.34;76.82
34177;BME280;20450;49.074;9.158;2022-11-15T05:13:17;99341.28;;;10.31;76.59
34177;BME280;20450;49.074;9.158;2022-11-15T05:16:03;99340.66;;;10.29;76.92
34177;BME280;20450;49.074;9.158;2022-11-15T05:18:51;99336.47;;;10.33;77.13
34177;BME280;20450;49.074;9.158;2022-11-15T05:21:38;99336.56;;;10.20;77.45
34177;BME280;20450;49.074;9.158;2022-11-15T05:24:24;99341.44;;;10.11;78.24
34177;BME280;20450;49.074;9.158;2022-11-15T05:27:09;99338.28;;;10.14;78.65
34177;BME280;20450;49.074;9.158;2022-11-15T05:29:56;99337.66;;;10.12;78.00
34177;BME280;20450;49.074;9.158;2022-11-15T05:32:42;99327.53;;;10.08;77.87
34177;BME280;20450;49.074;9.158;2022-11-15T05:35:31;99333.63;;;9.96;77.98
34177;BME280;20450;49.074;9.158;2022-11-15T05:38:25;99335.69;;;9.94;78.26
34177;BME280;20450;49.074;9.158;2022-11-15T05:41:17;99332.13;;;10.00;78.21
34177;BME280;20450;49.074;9.158;2022-11-15T05:44:09;99324.03;;;10.00;78.88
34177;BME280;20450;49.074;9.158;2022-11-15T05:47:03;99323.59;;;10.03;78.50
34177;BME280;20450;49.074;9.158;2022-11-15T05:49:53;99325.91;;;10.00;78.28
34177;BME280;20450;49.074;9.158;2022-11-15T05:52:42;99325.91;;;10.00;77.70
34177;BME280;20450;49.074;9.158;2022-11-15T05:55:32;99319.91;;;9.98;77.55
34177;BME280;20450;49.074;9.158;2022-11-15T05:58:19;99325.13;;;9.93;77.52
34177;BME280;20450;49.074;9.158;2022-11-15T06:01:06;99323.91;;;9.89;76.89
34177;BME280;20450;49.074;9.158;2022-11-15T06:03:53;99333.34;;;9.73;77.90
34177;BME280;20450;49.074;9.158;2022-11-15T06:06:43;99323.50;;;9.85;77.01
34177;BME280;20450;49.074;9.158;2022-11-15T06:13:10;99324.16;;;9.81;77.36
34177;BME280;20450;49.074;9.158;2022-11-15T06:15:55;99318.53;;;9.89;77.01
34177;BME280;20450;49.074;9.158;2022-11-15T06:18:47;99318.34;;;9.84;77.54
34177;BME280;20450;49.074;9.158;2022-11-15T06:21:33;99320.25;;;9.77;78.13
34177;BME280;20450;49.074;9.158;2022-11-15T06:24:31;99323.72;;;9.84;77.80
34177;BME280;20450;49.074;9.158;2022-11-15T06:27:43;99333.47;;;9.85;78.20
34177;BME280;20450;49.074;9.158;2022-11-15T06:30:55;99337.13;;;9.97;78.18
34177;BME280;20450;49.074;9.158;2022-11-15T06:33:42;99330.34;;;9.88;78.47
34177;BME280;20450;49.074;9.158;2022-11-15T06:36:29;99322.22;;;9.94;78.24
34177;BME280;20450;49.074;9.158;2022-11-15T06:39:22;99324.66;;;10.02;78.64
34177;BME280;20450;49.074;9.158;2022-11-15T06:42:08;99330.00;;;10.09;78.24
34177;BME280;20450;49.074;9.158;2022-11-15T06:44:54;99325.00;;;10.13;76.91
34177;BME280;20450;49.074;9.158;2022-11-15T06:47:46;99327.69;;;10.19;77.67
34177;BME280;20450;49.074;9.158;2022-11-15T06:50:32;99329.63;;;10.30;76.84
34177;BME280;20450;49.074;9.158;2022-11-15T06:53:18;99324.50;;;10.47;77.09
34177;BME280;20450;49.074;9.158;2022-11-15T06:56:06;99328.66;;;10.67;75.39
34177;BME280;20450;49.074;9.158;2022-11-15T06:58:52;99329.22;;;11.12;73.97
34177;BME280;20450;49.074;9.158;2022-11-15T07:01:38;99336.63;;;11.70;73.64
34177;BME280;20450;49.074;9.158;2022-11-15T07:04:25;99337.59;;;12.29;73.29
34177;BME280;20450;49.074;9.158;2022-11-15T07:07:11;99334.34;;;12.50;67.68
34177;BME280;20450;49.074;9.158;2022-11-15T07:10:02;99336.31;;;12.43;70.16
34177;BME280;20450;49.074;9.158;2022-11-15T07:12:48;99325.50;;;12.66;69.38
34177;BME280;20450;49.074;9.158;2022-11-15T07:15:33;99337.63;;;12.52;69.33
34177;BME280;20450;49.074;9.158;2022-11-15T07:18:20;99333.13;;;12.34;68.52
34177;BME280;20450;49.074;9.158;2022-11-15T07:21:09;99337.03;;;12.50;68.64
34177;BME280;20450;49.074;9.158;2022-11-15T07:23:55;99335.63;;;12.82;68.98
34177;BME280;20450;49.074;9.158;2022-11-15T07:26:45;99336.13;;;13.02;67.85
34177;BME280;20450;49.074;9.158;2022-11-15T07:29:32;99335.19;;;13.47;67.02
34177;BME280;20450;49.074;9.158;2022-11-15T07:32:18;99340.59;;;13.47;65.24
34177;BME280;20450;49.074;9.158;2022-11-15T07:35:05;99337.47;;;13.67;64.84
34177;BME280;20450;49.074;9.158;2022-11-15T07:37:56;99335.47;;;13.91;62.77
34177;BME280;20450;49.074;9.158;2022-11-15T07:40:42;99329.81;;;14.37;60.61
34177;BME280;20450;49.074;9.158;2022-11-15T07:43:28;99337.06;;;15.24;59.29
34177;BME280;20450;49.074;9.158;2022-11-15T07:46:15;99332.50;;;15.94;55.84
34177;BME280;20450;49.074;9.158;2022-11-15T07:49:01;99331.22;;;16.60;53.68
34177;BME280;20450;49.074;9.158;2022-11-15T07:51:46;99336.47;;;17.08;52.24
34177;BME280;20450;49.074;9.158;2022-11-15T07:54:33;99338.75;;;17.31;51.88
34177;BME280;20450;49.074;9.158;2022-11-15T07:57:19;99341.78;;;16.88;52.71
34177;BME280;20450;49.074;9.158;2022-11-15T08:00:06;99340.09;;;16.77;52.56
34177;BME280;20450;49.074;9.158;2022-11-15T08:02:53;99334.22;;;16.58;52.81
34177;BME280;20450;49.074;9.158;2022-11-15T08:05:50;99342.41;;;16.32;54.27
34177;BME280;20450;49.074;9.158;2022-11-15T08:08:36;99342.06;;;15.48;55.55
34177;BME280;20450;49.074;9.158;2022-11-15T08:11:24;99337.06;;;15.02;58.12
34177;BME280;20450;49.074;9.158;2022-11-15T08:14:10;99335.06;;;15.14;58.00
34177;BME280;20450;49.074;9.158;2022-11-15T08:16:56;99334.31;;;15.19;57.64
34177;BME280;20450;49.074;9.158;2022-11-15T08:19:42;99330.88;;;15.28;57.33
34177;BME280;20450;49.074;9.158;2022-11-15T08:22:27;99328.38;;;15.22;57.71
34177;BME280;20450;49.074;9.158;2022-11-15T08:25:15;99327.03;;;15.24;57.73
34177;BME280;20450;49.074;9.158;2022-11-15T08:28:03;99318.94;;;15.29;57.78
34177;BME280;20450;49.074;9.158;2022-11-15T08:30:51;99323.38;;;15.35;57.37
34177;BME280;20450;49.074;9.158;2022-11-15T08:33:38;99324.97;;;16.33;55.20
34177;BME280;20450;49.074;9.158;2022-11-15T08:36:24;99316.25;;;17.55;52.26
34177;BME280;20450;49.074;9.158;2022-11-15T08:39:10;99312.50;;;17.92;50.45
34177;BME280;20450;49.074;9.158;2022-11-15T08:41:56;99306.09;;;17.46;50.78
34177;BME280;20450;49.074;9.158;2022-11-15T08:44:42;99312.56;;;17.30;51.24
34177;BME280;20450;49.074;9.158;2022-11-15T08:47:30;99298.09;;;17.29;51.33
34177;BME280;20450;49.074;9.158;2022-11-15T08:50:16;99295.34;;;17.24;51.48
34177;BME280;20450;49.074;9.158;2022-11-15T08:53:05;99290.78;;;16.52;52.71
34177;BME280;20450;49.074;9.158;2022-11-15T08:55:51;99291.72;;;17.09;52.26
34177;BME280;20450;49.074;9.158;2022-11-15T08:58:37;99293.38;;;17.82;48.71
34177;BME280;20450;49.074;9.158;2022-11-15T09:01:24;99287.88;;;17.77;50.39
34177;BME280;20450;49.074;9.158;2022-11-15T09:04:10;99286.53;;;17.84;50.12
34177;BME280;20450;49.074;9.158;2022-11-15T09:06:55;99283.25;;;17.77;49.87
34177;BME280;20450;49.074;9.158;2022-11-15T09:09:41;99283.53;;;16.31;52.85
34177;BME280;20450;49.074;9.158;2022-11-15T09:12:32;99279.78;;;16.05;54.11
34177;BME280;20450;49.074;9.158;2022-11-15T09:15:18;99277.41;;;15.87;55.44
34177;BME280;20450;49.074;9.158;2022-11-15T09:18:05;99274.00;;;16.33;54.65
34177;BME280;20450;49.074;9.158;2022-11-15T09:20:51;99270.91;;;16.98;52.98
34177;BME280;20450;49.074;9.158;2022-11-15T09:23:37;99272.34;;;17.10;52.49
34177;BME280;20450;49.074;9.158;2022-11-15T09:26:23;99271.13;;;16.86;53.12
34177;BME280;20450;49.074;9.158;2022-11-15T09:29:09;99271.38;;;16.80;53.11
34177;BME280;20450;49.074;9.158;2022-11-15T09:31:54;99270.91;;;16.56;54.07
34177;BME280;20450;49.074;9.158;2022-11-15T09:34:41;99270.53;;;16.43;54.99
34177;BME280;20450;49.074;9.158;2022-11-15T09:37:27;99273.66;;;15.93;56.08
34177;BME280;20450;49.074;9.158;2022-11-15T09:40:16;99271.50;;;15.68;56.33
34177;BME280;20450;49.074;9.158;2022-11-15T09:43:11;99276.09;;;14.27;60.30
34177;BME280;20450;49.074;9.158;2022-11-15T09:46:19;99269.41;;;13.85;61.16
34177;BME280;20450;49.074;9.158;2022-11-15T09:49:20;99272.38;;;13.55;61.14
34177;BME280;20450;49.074;9.158;2022-11-15T09:52:18;99265.53;;;13.53;62.31
34177;BME280;20450;49.074;9.158;2022-11-15T09:54:49;99256.00;;;13.95;61.74
34177;BME280;20450;49.074;9.158;2022-11-15T09:57:26;99259.72;;;14.22;60.12
34177;BME280;20450;49.074;9.158;2022-11-15T10:00:08;99260.78;;;13.88;61.23
34177;BME280;20450;49.074;9.158;2022-11-15T10:03:10;99269.47;;;13.90;61.63
34177;BME280;20450;49.074;9.158;2022-11-15T10:05:41;99254.38;;;14.27;60.94
34177;BME280;20450;49.074;9.158;2022-11-15T10:08:25;99255.19;;;14.44;60.60
34177;BME280;20450;49.074;9.158;2022-11-15T10:11:17;99254.25;;;14.55;60.64
34177;BME280;20450;49.074;9.158;2022-11-15T10:14:09;99241.88;;;14.26;60.59
34177;BME280;20450;49.074;9.158;2022-11-15T10:17:10;99238.94;;;14.49;60.28
34177;BME280;20450;49.074;9.158;2022-11-15T10:19:55;99241.34;;;14.62;60.68
34177;BME280;20450;49.074;9.158;2022-11-15T10:22:39;99231.34;;;14.68;60.35
34177;BME280;20450;49.074;9.158;2022-11-15T10:25:19;99231.47;;;14.78;60.67
34177;BME280;20450;49.074;9.158;2022-11-15T10:27:53;99229.91;;;14.82;59.70
34177;BME280;20450;49.074;9.158;2022-11-15T10:30:23;99224.34;;;14.55;60.39
34177;BME280;20450;49.074;9.158;2022-11-15T10:32:56;99221.97;;;14.59;60.64
34177;BME280;20450;49.074;9.158;2022-11-15T10:35:24;99215.78;;;14.63;59.36
34177;BME280;20450;49.074;9.158;2022-11-15T10:38:05;99210.97;;;14.70;60.59
34177;BME280;20450;49.074;9.158;2022-11-15T10:40:35;99206.13;;;14.72;60.96
34177;BME280;20450;49.074;9.158;2022-11-15T10:43:13;99211.63;;;14.77;62.09
34177;BME280;20450;49.074;9.158;2022-11-15T10:45:42;99206.50;;;14.81;61.57
34177;BME280;20450;49.074;9.158;2022-11-15T10:48:24;99208.97;;;14.82;62.82
34177;BME280;20450;49.074;9.158;2022-11-15T10:50:52;99204.56;;;14.60;62.06
34177;BME280;20450;49.074;9.158;2022-11-15T10:53:25;99194.53;;;14.60;60.41
34177;BME280;20450;49.074;9.158;2022-11-15T10:56:00;99185.97;;;14.68;61.84
34177;BME280;20450;49.074;9.158;2022-11-15T10:58:34;99191.25;;;14.80;63.36
34177;BME280;20450;49.074;9.158;2022-11-15T11:01:25;99196.28;;;14.88;63.42
34177;BME280;20450;49.074;9.158;2022-11-15T11:03:59;99186.19;;;14.88;62.74
34177;BME280;20450;49.074;9.158;2022-11-15T11:06:27;99184.88;;;14.91;62.59
34177;BME280;20450;49.074;9.158;2022-11-15T11:08:57;99179.44;;;14.91;62.43
34177;BME280;20450;49.074;9.158;2022-11-15T11:11:44;99179.69;;;14.89;63.65
34177;BME280;20450;49.074;9.158;2022-11-15T11:14:13;99182.41;;;14.89;63.44
34177;BME280;20450;49.074;9.158;2022-11-15T11:16:48;99182.94;;;14.86;63.24
34177;BME280;20450;49.074;9.158;2022-11-15T11:19:28;99175.03;;;14.85;63.66
34177;BME280;20450;49.074;9.158;2022-11-15T11:22:09;99180.13;;;14.81;63.97
34177;BME280;20450;49.074;9.158;2022-11-15T11:24:48;99175.72;;;14.75;62.70
34177;BME280;20450;49.074;9.158;2022-11-15T11:27:36;99170.66;;;14.62;61.89
34177;BME280;20450;49.074;9.158;2022-11-15T11:30:14;99160.00;;;14.39;62.33
34177;BME280;20450;49.074;9.158;2022-11-15T11:32:54;99173.16;;;14.47;63.33
34177;BME280;20450;49.074;9.158;2022-11-15T11:35:35;99162.66;;;14.56;65.74
34177;BME280;20450;49.074;9.158;2022-11-15T11:38:38;99165.91;;;14.74;66.88
34177;BME280;20450;49.074;9.158;2022-11-15T11:41:20;99159.22;;;14.82;64.23
34177;BME280;20450;49.074;9.158;2022-11-15T11:44:07;99151.84;;;14.82;63.56
34177;BME280;20450;49.074;9.158;2022-11-15T11:46:50;99142.25;;;14.75;62.94
34177;BME280;20450;49.074;9.158;2022-11-15T11:49:28;99132.81;;;14.82;63.45
34177;BME280;20450;49.074;9.158;2022-11-15T11:52:08;99130.59;;;15.01;64.35
34177;BME280;20450;49.074;9.158;2022-11-15T11:54:47;99123.97;;;14.92;61.84
34177;BME280;20450;49.074;9.158;2022-11-15T11:57:31;99126.59;;;15.08;62.81
34177;BME280;20450;49.074;9.158;2022-11-15T12:00:15;99123.53;;;15.26;62.22
34177;BME280;20450;49.074;9.158;2022-11-15T12:03:01;99119.41;;;15.50;62.19
34177;BME280;20450;49.074;9.158;2022-11-15T12:05:36;99112.50;;;15.69;59.88
34177;BME280;20450;49.074;9.158;2022-11-15T12:08:19;99104.97;;;15.82;59.69
34177;BME280;20450;49.074;9.158;2022-11-15T12:11:02;99096.19;;;15.74;57.83
34177;BME280;20450;49.074;9.158;2022-11-15T12:13:36;99097.75;;;15.65;60.61
34177;BME280;20450;49.074;9.158;2022-11-15T12:16:09;99101.63;;;15.69;60.57
34177;BME280;20450;49.074;9.158;2022-11-15T12:18:44;99091.34;;;15.82;59.93
34177;BME280;20450;49.074;9.158;2022-11-15T12:21:19;99085.44;;;15.95;59.48
34177;BME280;20450;49.074;9.158;2022-11-15T12:23:59;99079.47;;;15.98;58.93
34177;BME280;20450;49.074;9.158;2022-11-15T12:26:34;99078.69;;;16.07;58.85
34177;BME280;20450;49.074;9.158;2022-11-15T12:29:18;99074.91;;;16.13;58.63
34177;BME280;20450;49.074;9.158;2022-11-15T12:31:55;99076.13;;;16.32;59.13
34177;BME280;20450;49.074;9.158;2022-11-15T12:34:39;99076.16;;;16.42;58.95
34177;BME280;20450;49.074;9.158;2022-11-15T12:40:22;99079.22;;;16.51;58.11
34177;BME280;20450;49.074;9.158;2022-11-15T12:46:05;99069.03;;;15.85;58.71
34177;BME280;20450;49.074;9.158;2022-11-15T12:48:59;99063.06;;;15.51;60.77
34177;BME280;20450;49.074;9.158;2022-11-15T12:54:56;99048.88;;;15.17;60.79
34177;BME280;20450;49.074;9.158;2022-11-15T12:57:43;99055.56;;;14.78;61.61
34177;BME280;20450;49.074;9.158;2022-11-15T13:00:43;99047.09;;;14.75;63.27
34177;BME280;20450;49.074;9.158;2022-11-15T13:03:35;99046.47;;;14.68;62.75
34177;BME280;20450;49.074;9.158;2022-11-15T13:06:38;99043.81;;;14.73;63.20
34177;BME280;20450;49.074;9.158;2022-11-15T13:12:54;99031.75;;;14.90;63.74
34177;BME280;20450;49.074;9.158;2022-11-15T13:15:53;99025.63;;;15.05;63.34
34177;BME280;20450;49.074;9.158;2022-11-15T13:18:35;99022.22;;;15.19;63.45
34177;BME280;20450;49.074;9.158;2022-11-15T13:21:18;99014.16;;;15.29;64.07
34177;BME280;20450;49.074;9.158;2022-11-15T13:23:53;99004.72;;;15.37;64.37
34177;BME280;20450;49.074;9.158;2022-11-15T13:26:21;99001.75;;;15.43;64.04
34177;BME280;20450;49.074;9.158;2022-11-15T13:28:50;99002.09;;;15.52;63.27
34177;BME280;20450;49.074;9.158;2022-11-15T13:31:24;99000.25;;;15.57;63.55
34177;BME280;20450;49.074;9.158;2022-11-15T13:33:57;99000.50;;;15.61;62.87
34177;BME280;20450;49.074;9.158;2022-11-15T13:36:29;98996.47;;;15.63;62.48
34177;BME280;20450;49.074;9.158;2022-11-15T13:39:01;98995.94;;;15.66;62.60
34177;BME280;20450;49.074;9.158;2022-11-15T13:41:31;98981.28;;;15.73;64.59
34177;BME280;20450;49.074;9.158;2022-11-15T13:44:01;98979.63;;;15.71;64.55
34177;BME280;20450;49.074;9.158;2022-11-15T13:46:31;98985.06;;;15.71;65.01
34177;BME280;20450;49.074;9.158;2022-11-15T13:49:05;98982.34;;;15.71;64.97
34177;BME280;20450;49.074;9.158;2022-11-15T13:51:46;98967.63;;;15.67;65.27
34177;BME280;20450;49.074;9.158;2022-11-15T13:54:20;98974.44;;;15.65;64.83
34177;BME280;20450;49.074;9.158;2022-11-15T13:56:59;98966.69;;;15.47;64.20
34177;BME280;20450;49.074;9.158;2022-11-15T13:59:30;98961.59;;;15.24;65.22
34177;BME280;20450;49.074;9.158;2022-11-15T14:02:03;98959.06;;;15.12;65.83
34177;BME280;20450;49.074;9.158;2022-11-15T14:04:48;98945.72;;;15.11;65.68
34177;BME280;20450;49.074;9.158;2022-11-15T14:07:19;98946.81;;;15.15;65.49
34177;BME280;20450;49.074;9.158;2022-11-15T14:13:26;98942.31;;;14.94;65.39
34177;BME280;20450;49.074;9.158;2022-11-15T14:16:13;98935.25;;;14.93;64.85
34177;BME280;20450;49.074;9.158;2022-11-15T14:18:47;98942.03;;;14.95;64.07
34177;BME280;20450;49.074;9.158;2022-11-15T14:21:16;98935.53;;;14.96;63.69
34177;BME280;20450;49.074;9.158;2022-11-15T14:23:45;98935.81;;;14.95;63.87
34177;BME280;20450;49.074;9.158;2022-11-15T14:26:29;98933.88;;;14.90;63.93
34177;BME280;20450;49.074;9.158;2022-11-15T14:29:21;98920.28;;;14.90;64.60
34177;BME280;20450;49.074;9.158;2022-11-15T14:31:49;98922.47;;;14.93;64.70
34177;BME280;20450;49.074;9.158;2022-11-15T14:34:16;98919.75;;;14.93;63.51
34177;BME280;20450;49.074;9.158;2022-11-15T14:36:43;98905.59;;;14.91;63.36
34177;BME280;20450;49.074;9.158;2022-11-15T14:39:10;98903.44;;;14.93;63.49
34177;BME280;20450;49.074;9.158;2022-11-15T14:41:39;98901.50;;;14.94;62.92
34177;BME280;20450;49.074;9.158;2022-11-15T14:44:06;98901.50;;;14.94;62.87
34177;BME280;20450;49.074;9.158;2022-11-15T14:46:35;98890.38;;;14.95;62.24
34177;BME280;20450;49.074;9.158;2022-11-15T14:49:02;98896.06;;;14.94;62.39
34177;BME280;20450;49.074;9.158;2022-11-15T14:51:29;98902.91;;;14.96;62.80
34177;BME280;20450;49.074;9.158;2022-11-15T14:53:56;98892.56;;;14.93;62.69
34177;BME280;20450;49.074;9.158;2022-11-15T14:56:23;98894.97;;;14.90;63.86
34177;BME280;20450;49.074;9.158;2022-11-15T14:58:51;98894.13;;;14.84;63.67
34177;BME280;20450;49.074;9.158;2022-11-15T15:01:24;98887.06;;;14.83;63.99